createdAt,value
2022-11-08T00:03:10.199Z,99.50
2022-11-08T00:06:51.032Z,99.50
2022-11-08T00:10:31.931Z,99.50
2022-11-08T00:14:00.423Z,99.50
2022-11-08T00:17:24.679Z,99.40
2022-11-08T00:20:46.875Z,99.40
2022-11-08T00:24:09.238Z,99.40
2022-11-08T00:27:31.686Z,99.50
2022-11-08T00:30:53.908Z,99.50
2022-11-08T00:34:16.122Z,99.40
2022-11-08T00:37:38.415Z,99.40
2022-11-08T00:41:00.703Z,99.40
2022-11-08T00:44:22.942Z,99.40
2022-11-08T00:47:45.195Z,99.40
2022-11-08T00:51:10.269Z,99.40
2022-11-08T00:54:32.560Z,99.50
2022-11-08T00:57:59.613Z,99.50
2022-11-08T01:01:22.519Z,99.50
2022-11-08T01:04:44.782Z,99.50
2022-11-08T01:08:07.023Z,99.60
2022-11-08T01:11:29.263Z,99.60
2022-11-08T01:14:51.495Z,99.60
2022-11-08T01:18:16.817Z,99.60
2022-11-08T01:21:39.287Z,99.70
2022-11-08T01:25:01.489Z,99.70
2022-11-08T01:28:23.721Z,99.70
2022-11-08T01:31:46.000Z,99.70
2022-11-08T01:35:08.695Z,99.70
2022-11-08T01:38:30.903Z,99.80
2022-11-08T01:41:53.119Z,99.90
2022-11-08T01:45:15.347Z,99.90
2022-11-08T01:48:42.148Z,99.90
2022-11-08T01:52:13.652Z,99.90
2022-11-08T01:55:36.873Z,99.90
2022-11-08T01:59:02.694Z,99.90
2022-11-08T02:02:25.223Z,99.90
2022-11-08T02:05:48.087Z,99.90
2022-11-08T02:09:14.121Z,99.90
2022-11-08T02:12:36.429Z,99.90
2022-11-08T02:15:58.801Z,99.90
2022-11-08T02:19:38.518Z,99.90
2022-11-08T02:23:21.906Z,99.90
2022-11-08T02:26:45.873Z,99.90
2022-11-08T02:30:08.714Z,99.90
2022-11-08T02:33:30.920Z,99.90
2022-11-08T02:36:53.743Z,99.90
2022-11-08T02:40:16.036Z,99.90
2022-11-08T02:43:38.521Z,99.90
2022-11-08T02:47:00.775Z,99.90
2022-11-08T02:50:22.966Z,99.90
2022-11-08T02:53:45.164Z,99.90
2022-11-08T02:57:07.610Z,99.90
2022-11-08T03:00:30.369Z,99.90
2022-11-08T03:03:52.637Z,99.90
2022-11-08T03:07:14.916Z,99.90
2022-11-08T03:10:37.139Z,99.90
2022-11-08T03:13:59.471Z,99.90
2022-11-08T03:17:21.684Z,99.90
2022-11-08T03:20:44.502Z,99.90
2022-11-08T03:24:07.139Z,99.90
2022-11-08T03:27:29.465Z,99.90
2022-11-08T03:30:53.156Z,99.90
2022-11-08T03:34:15.351Z,99.90
2022-11-08T03:37:37.570Z,99.90
2022-11-08T03:40:59.803Z,99.90
2022-11-08T03:44:22.042Z,99.90
2022-11-08T03:47:47.026Z,99.90
2022-11-08T03:51:13.446Z,99.90
2022-11-08T03:54:35.669Z,99.90
2022-11-08T03:57:58.011Z,99.90
2022-11-08T04:01:20.401Z,99.90
2022-11-08T04:04:42.636Z,99.90
2022-11-08T04:08:05.403Z,99.90
2022-11-08T04:11:46.353Z,99.90
2022-11-08T04:15:17.655Z,99.90
2022-11-08T04:18:58.747Z,99.90
2022-11-08T04:22:21.098Z,99.90
2022-11-08T04:25:44.493Z,99.90
2022-11-08T04:29:08.104Z,99.90
2022-11-08T04:32:30.292Z,99.90
2022-11-08T04:35:53.136Z,99.90
2022-11-08T04:39:15.341Z,99.90
2022-11-08T04:42:37.565Z,99.90
2022-11-08T04:46:11.523Z,99.90
2022-11-08T04:49:33.709Z,99.90
2022-11-08T04:52:56.156Z,99.90
2022-11-08T04:56:20.580Z,99.90
2022-11-08T04:59:42.820Z,99.90
2022-11-08T05:03:05.041Z,99.90
2022-11-08T05:06:29.866Z,99.90
2022-11-08T05:09:52.067Z,99.90
2022-11-08T05:13:14.276Z,99.90
2022-11-08T05:16:36.555Z,99.90
2022-11-08T05:20:17.530Z,99.90
2022-11-08T05:23:39.854Z,99.90
2022-11-08T05:27:02.064Z,99.90
2022-11-08T05:30:24.291Z,99.90
2022-11-08T05:33:46.896Z,99.90
2022-11-08T05:37:09.105Z,99.90
2022-11-08T05:40:33.609Z,99.90
2022-11-08T05:43:56.240Z,99.90
2022-11-08T05:47:18.540Z,99.90
2022-11-08T05:50:41.193Z,99.90
2022-11-08T05:54:08.063Z,99.90
2022-11-08T05:57:31.031Z,99.90
2022-11-08T06:01:03.817Z,99.90
2022-11-08T06:04:26.072Z,99.90
2022-11-08T06:07:48.411Z,99.90
2022-11-08T06:11:16.327Z,99.90
2022-11-08T06:14:38.519Z,99.90
2022-11-08T06:18:05.047Z,99.90
2022-11-08T06:21:27.728Z,99.90
2022-11-08T06:24:49.994Z,99.90
2022-11-08T06:28:13.200Z,99.90
2022-11-08T06:31:39.340Z,99.90
2022-11-08T06:35:05.414Z,99.90
2022-11-08T06:38:27.715Z,99.90
2022-11-08T06:41:50.029Z,99.90
2022-11-08T06:45:12.235Z,99.90
2022-11-08T06:48:36.246Z,99.90
2022-11-08T06:51:58.793Z,99.90
2022-11-08T06:55:21.010Z,99.90
2022-11-08T06:58:43.279Z,99.90
2022-11-08T07:02:05.718Z,99.90
2022-11-08T07:05:29.885Z,99.90
2022-11-08T07:08:52.286Z,99.90
2022-11-08T07:12:14.489Z,99.90
2022-11-08T07:15:38.136Z,99.90
2022-11-08T07:19:00.356Z,99.90
2022-11-08T07:22:22.576Z,99.90
2022-11-08T07:25:44.946Z,99.90
2022-11-08T07:29:07.161Z,99.90
2022-11-08T07:32:29.649Z,99.90
2022-11-08T07:35:51.891Z,99.90
2022-11-08T07:39:14.173Z,99.90
2022-11-08T07:43:04.847Z,99.90
2022-11-08T07:46:19.793Z,99.90
2022-11-08T07:49:42.034Z,99.90
2022-11-08T07:53:04.315Z,99.90
2022-11-08T07:56:26.507Z,99.90
2022-11-08T07:59:49.880Z,99.90
2022-11-08T08:03:14.962Z,99.90
2022-11-08T08:06:37.185Z,99.90
2022-11-08T08:09:59.455Z,99.90
2022-11-08T08:13:21.778Z,99.90
2022-11-08T08:16:44.001Z,99.90
2022-11-08T08:20:07.679Z,99.90
2022-11-08T08:23:29.853Z,99.90
2022-11-08T08:26:52.193Z,99.90
2022-11-08T08:30:15.028Z,99.90
2022-11-08T08:33:38.008Z,99.90
2022-11-08T08:37:00.486Z,99.90
2022-11-08T08:40:22.680Z,99.90
2022-11-08T08:43:44.885Z,99.90
2022-11-08T08:47:07.205Z,99.90
2022-11-08T08:50:30.771Z,99.90
2022-11-08T08:53:52.999Z,99.90
2022-11-08T08:57:15.168Z,99.90
2022-11-08T09:04:20.096Z,99.90
2022-11-08T09:07:42.488Z,99.90
2022-11-08T09:11:04.996Z,99.90
2022-11-08T09:14:27.364Z,99.90
2022-11-08T09:17:49.676Z,99.90
2022-11-08T09:21:11.933Z,99.90
2022-11-08T09:24:34.722Z,99.90
2022-11-08T09:27:43.596Z,99.90
2022-11-08T09:31:09.227Z,99.90
2022-11-08T09:34:31.409Z,99.90
2022-11-08T09:37:54.315Z,99.90
2022-11-08T09:41:34.546Z,99.90
2022-11-08T09:45:20.811Z,99.90
2022-11-08T09:48:45.064Z,99.90
2022-11-08T09:52:09.874Z,99.90
2022-11-08T09:55:44.592Z,99.90
2022-11-08T09:59:25.505Z,99.90
2022-11-08T10:02:47.914Z,99.90
2022-11-08T10:06:47.365Z,99.90
2022-11-08T10:10:29.508Z,99.90
2022-11-08T10:13:51.656Z,99.90
2022-11-08T10:17:35.670Z,99.90
2022-11-08T10:21:08.778Z,99.90
2022-11-08T10:25:03.504Z,99.90
2022-11-08T10:28:36.639Z,99.90
2022-11-08T10:32:05.495Z,99.90
2022-11-08T10:35:38.109Z,99.90
2022-11-08T10:39:03.669Z,99.90
2022-11-08T10:42:45.977Z,99.90
2022-11-08T10:46:37.912Z,99.90
2022-11-08T10:50:04.081Z,99.90
2022-11-08T10:53:29.713Z,99.90
2022-11-08T10:56:58.407Z,99.90
2022-11-08T11:00:20.548Z,99.90
2022-11-08T11:03:44.308Z,99.90
2022-11-08T11:07:30.656Z,99.90
2022-11-08T11:10:52.983Z,99.90
2022-11-08T11:14:22.153Z,99.90
2022-11-08T11:17:46.462Z,99.90
2022-11-08T11:21:18.850Z,99.90
2022-11-08T11:24:50.985Z,99.90
2022-11-08T11:28:14.057Z,99.90
2022-11-08T11:31:38.807Z,99.90
2022-11-08T11:35:07.429Z,99.90
2022-11-08T11:38:58.025Z,99.90
2022-11-08T11:42:44.358Z,99.90
2022-11-08T11:46:22.914Z,99.90
2022-11-08T11:49:46.713Z,99.90
2022-11-08T11:53:29.799Z,99.90
2022-11-08T11:57:04.847Z,99.90
2022-11-08T12:00:27.075Z,99.90
2022-11-08T12:03:51.946Z,99.90
2022-11-08T12:07:28.433Z,99.90
2022-11-08T12:11:29.305Z,99.90
2022-11-08T12:14:55.649Z,99.90
2022-11-08T12:18:47.066Z,99.90
2022-11-08T12:22:20.333Z,99.90
2022-11-08T12:26:16.133Z,99.90
2022-11-08T12:30:01.349Z,99.90
2022-11-08T12:33:47.563Z,99.90
2022-11-08T12:37:28.954Z,99.90
2022-11-08T12:41:18.312Z,99.90
2022-11-08T12:45:06.756Z,99.90
2022-11-08T12:48:37.952Z,99.90
2022-11-08T12:52:24.590Z,99.70
2022-11-08T12:55:53.026Z,99.50
2022-11-08T12:59:49.030Z,99.40
2022-11-08T13:03:11.147Z,99.40
2022-11-08T13:06:38.419Z,99.40
2022-11-08T13:10:26.812Z,99.40
2022-11-08T13:13:54.170Z,99.40
2022-11-08T13:17:26.925Z,99.40
2022-11-08T13:20:50.098Z,99.50
2022-11-08T13:24:42.990Z,99.50
2022-11-08T13:27:59.863Z,99.50
2022-11-08T13:31:42.127Z,99.50
2022-11-08T13:35:27.339Z,99.50
2022-11-08T13:39:18.182Z,99.50
2022-11-08T13:42:58.012Z,99.40
2022-11-08T13:46:20.269Z,99.40
2022-11-08T13:49:42.485Z,99.40
2022-11-08T13:53:20.393Z,99.50
2022-11-08T13:56:42.530Z,99.40
2022-11-08T14:00:29.974Z,99.40
2022-11-08T14:03:53.132Z,99.20
2022-11-08T14:07:43.095Z,99.10
2022-11-08T14:11:31.451Z,99.20
2022-11-08T14:15:18.445Z,99.20
2022-11-08T14:18:40.635Z,99.10
2022-11-08T14:22:03.376Z,99.10
2022-11-08T14:25:34.249Z,99.00
2022-11-08T14:29:00.127Z,98.90
2022-11-08T14:32:22.259Z,99.00
2022-11-08T14:36:02.460Z,98.90
2022-11-08T14:39:33.383Z,98.90
2022-11-08T14:42:56.339Z,98.90
2022-11-08T14:46:39.929Z,98.70
2022-11-08T14:50:02.080Z,98.70
2022-11-08T14:53:26.994Z,98.70
2022-11-08T14:56:50.385Z,98.80
2022-11-08T15:00:26.700Z,98.70
2022-11-08T15:03:57.897Z,98.80
2022-11-08T15:07:21.958Z,98.80
2022-11-08T15:11:02.447Z,98.80
2022-11-08T15:14:27.623Z,98.80
2022-11-08T15:18:10.142Z,98.80
2022-11-08T15:21:32.589Z,98.80
2022-11-08T15:25:14.105Z,98.80
2022-11-08T15:28:36.410Z,98.80
2022-11-08T15:32:01.722Z,98.90
2022-11-08T15:35:28.842Z,98.90
2022-11-08T15:38:51.120Z,98.90
2022-11-08T15:42:15.009Z,98.90
2022-11-08T15:45:37.228Z,98.90
2022-11-08T15:49:00.255Z,99.00
2022-11-08T15:52:22.400Z,99.00
2022-11-08T15:55:54.892Z,99.00
2022-11-08T15:59:21.570Z,99.10
2022-11-08T16:02:45.084Z,99.10
2022-11-08T16:06:09.573Z,99.10
2022-11-08T16:09:31.756Z,99.10
2022-11-08T16:12:53.937Z,99.10
2022-11-08T16:16:17.938Z,99.10
2022-11-08T16:19:40.084Z,99.60
2022-11-08T16:23:04.389Z,99.20
2022-11-08T16:26:26.558Z,99.20
2022-11-08T16:29:48.740Z,99.20
2022-11-08T16:33:19.983Z,99.30
2022-11-08T16:36:45.055Z,99.30
2022-11-08T16:40:22.687Z,99.70
2022-11-08T16:43:45.254Z,99.70
2022-11-08T16:47:16.969Z,99.30
2022-11-08T16:50:40.328Z,99.30
2022-11-08T16:54:03.582Z,99.80
2022-11-08T16:57:34.728Z,99.30
2022-11-08T17:00:57.755Z,99.40
2022-11-08T17:04:19.976Z,99.30
2022-11-08T17:07:42.190Z,99.40
2022-11-08T17:11:04.355Z,99.40
2022-11-08T17:14:26.513Z,99.40
2022-11-08T17:17:50.481Z,99.50
2022-11-08T17:21:42.992Z,99.50
2022-11-08T17:24:56.480Z,99.60
2022-11-08T17:28:18.917Z,99.60
2022-11-08T17:31:41.269Z,99.70
2022-11-08T17:35:05.581Z,99.70
2022-11-08T17:38:27.725Z,99.60
2022-11-08T17:41:49.947Z,99.60
2022-11-08T17:45:12.328Z,99.50
2022-11-08T17:48:34.991Z,99.70
2022-11-08T17:51:57.142Z,99.60
2022-11-08T17:55:19.388Z,99.40
2022-11-08T17:58:41.632Z,99.50
2022-11-08T18:02:03.932Z,99.50
2022-11-08T18:05:26.137Z,99.90
2022-11-08T18:08:48.605Z,99.90
2022-11-08T18:12:10.783Z,99.90
2022-11-08T18:15:32.952Z,99.90
2022-11-08T18:18:55.913Z,99.90
2022-11-08T18:22:18.051Z,99.90
2022-11-08T18:25:40.326Z,99.90
2022-11-08T18:29:03.655Z,99.90
2022-11-08T18:32:25.861Z,99.90
2022-11-08T18:35:48.191Z,99.90
2022-11-08T18:39:14.070Z,99.90
2022-11-08T18:42:40.385Z,99.90
2022-11-08T18:46:08.600Z,99.90
2022-11-08T18:49:30.792Z,99.90
2022-11-08T18:52:52.971Z,99.90
2022-11-08T18:56:16.184Z,99.90
2022-11-08T18:59:38.397Z,99.90
2022-11-08T19:03:01.997Z,99.90
2022-11-08T19:06:24.166Z,99.90
2022-11-08T19:09:47.367Z,99.90
2022-11-08T19:13:09.494Z,99.90
2022-11-08T19:16:31.791Z,99.90
2022-11-08T19:19:53.974Z,99.90
2022-11-08T19:23:16.331Z,99.90
2022-11-08T19:26:38.719Z,99.90
2022-11-08T19:30:01.334Z,99.80
2022-11-08T19:33:25.460Z,99.90
2022-11-08T19:36:52.698Z,99.90
2022-11-08T19:40:17.621Z,99.90
2022-11-08T19:43:41.599Z,99.90
2022-11-08T19:47:03.757Z,99.90
2022-11-08T19:50:26.149Z,99.90
2022-11-08T19:53:48.731Z,99.90
2022-11-08T19:57:11.052Z,99.90
2022-11-08T20:00:33.474Z,99.90
2022-11-08T20:03:57.635Z,99.90
2022-11-08T20:07:19.863Z,99.90
2022-11-08T20:10:42.307Z,99.90
2022-11-08T20:14:05.338Z,99.90
2022-11-08T20:17:27.721Z,99.90
2022-11-08T20:20:49.962Z,99.90
2022-11-08T20:24:13.021Z,99.90
2022-11-08T20:27:35.322Z,99.90
2022-11-08T20:31:05.799Z,99.90
2022-11-08T20:34:29.817Z,99.90
2022-11-08T20:37:55.986Z,99.90
2022-11-08T20:41:18.698Z,99.90
2022-11-08T20:44:41.264Z,99.90
2022-11-08T20:48:03.653Z,99.90
2022-11-08T20:51:26.067Z,99.90
2022-11-08T20:54:49.653Z,99.90
2022-11-08T20:58:11.811Z,99.90
2022-11-08T21:01:35.838Z,99.90
2022-11-08T21:04:58.142Z,99.90
2022-11-08T21:12:03.448Z,99.90
2022-11-08T21:15:27.358Z,99.90
2022-11-08T21:18:49.559Z,99.90
2022-11-08T21:22:17.775Z,99.90
2022-11-08T21:25:39.944Z,99.90
2022-11-08T21:29:03.160Z,99.90
2022-11-08T21:32:25.330Z,99.90
2022-11-08T21:35:54.672Z,99.90
2022-11-08T21:39:16.864Z,99.90
2022-11-08T21:42:41.695Z,99.90
2022-11-08T21:46:20.693Z,99.90
2022-11-08T21:49:42.860Z,99.90
2022-11-08T21:53:06.435Z,99.90
2022-11-08T21:56:30.551Z,99.90
2022-11-08T21:59:52.751Z,99.90
2022-11-08T22:03:14.898Z,99.90
2022-11-08T22:06:37.206Z,99.90
2022-11-08T22:09:59.661Z,99.90
2022-11-08T22:13:22.143Z,99.90
2022-11-08T22:16:45.024Z,99.90
2022-11-08T22:20:08.022Z,99.90
2022-11-08T22:23:30.227Z,99.90
2022-11-08T22:26:52.737Z,99.90
2022-11-08T22:30:16.785Z,99.90
2022-11-08T22:33:39.189Z,99.90
2022-11-08T22:37:01.436Z,99.90
2022-11-08T22:40:23.754Z,99.90
2022-11-08T22:43:46.777Z,99.90
2022-11-08T22:47:08.943Z,99.90
2022-11-08T22:50:31.165Z,99.90
2022-11-08T22:53:53.324Z,99.90
2022-11-08T22:57:15.537Z,99.90
2022-11-08T23:00:37.919Z,99.90
2022-11-08T23:04:00.360Z,99.90
2022-11-08T23:07:22.547Z,99.90
2022-11-08T23:11:14.061Z,99.90
2022-11-08T23:14:54.601Z,99.90
2022-11-08T23:18:16.824Z,99.90
2022-11-08T23:21:57.737Z,99.90
2022-11-08T23:25:19.922Z,99.90
2022-11-08T23:29:00.615Z,99.90
2022-11-08T23:32:22.857Z,99.90
2022-11-08T23:36:04.929Z,99.90
2022-11-08T23:39:27.048Z,99.90
2022-11-08T23:43:07.930Z,99.90
2022-11-08T23:46:30.165Z,99.90
2022-11-08T23:49:52.291Z,99.90
2022-11-08T23:53:14.496Z,99.90
2022-11-08T23:56:36.881Z,99.90
2022-11-08T23:59:59.047Z,99.90
